Time;durP1;ratioP1;P1;durP2;ratioP2;P2;SDS_P1;SDS_P2;PMS_P1;PMS_P2;Temp;Humidity;BMP_temperature;BMP_pressure;BME280_temperature;BME280_humidity;BME280_pressure;Samples;Min_cycle;Max_cycle;Signal;HPM_P1;HPM_P2
2021/12/16 00:03:05;;;;;;;15.67;11.27;;;;;;;3.31;100.00;96133.25;4949956;28;20212;-71
2021/12/16 00:08:30;;;;;;;17.73;11.50;;;;;;;3.18;100.00;96140.16;4951208;29;20218;-71
2021/12/16 00:11:16;;;;;;;17.93;11.77;;;;;;;3.32;100.00;96140.22;4954037;28;20257;-73
2021/12/16 00:33:39;;;;;;;16.83;11.33;;;;;;;3.20;100.00;96123.56;4937161;28;20197;-70
2021/12/16 00:36:07;;;;;;;13.73;9.50;;;;;;;3.23;100.00;96122.81;4955448;28;20651;-71
2021/12/16 00:38:34;;;;;;;13.63;9.60;;;;;;;3.14;100.00;96123.16;4935035;29;20278;-71
2021/12/16 00:41:01;;;;;;;14.33;9.87;;;;;;;3.22;100.00;96116.66;4955906;28;20241;-71
2021/12/16 00:48:26;;;;;;;14.47;10.23;;;;;;;3.29;100.00;96124.00;4938904;29;20229;-71
2021/12/16 00:56:13;;;;;;;16.63;11.63;;;;;;;3.37;100.00;96122.88;4949115;29;20208;-71
2021/12/16 00:58:55;;;;;;;16.43;10.40;;;;;;;3.36;100.00;96116.69;4958544;28;20193;-71
2021/12/16 01:01:44;;;;;;;17.73;9.97;;;;;;;3.29;100.00;96116.66;4952929;28;20199;-70
2021/12/16 01:07:33;;;;;;;15.97;10.73;;;;;;;3.13;100.00;96118.91;4953566;29;20190;-71
2021/12/16 01:51:00;;;;;;;16.73;11.03;;;;;;;2.86;100.00;96138.44;4952971;28;20217;-71
2021/12/16 01:54:14;;;;;;;16.57;10.77;;;;;;;2.87;100.00;96140.00;4937065;29;20197;-71
2021/12/16 01:59:02;;;;;;;15.57;9.73;;;;;;;2.83;100.00;96137.28;4960298;28;20612;-71
2021/12/16 02:01:32;;;;;;;16.43;9.20;;;;;;;2.83;100.00;96133.81;4937787;28;20619;-70
2021/12/16 02:04:19;;;;;;;12.97;8.53;;;;;;;2.87;100.00;96127.25;4950500;28;20566;-70
2021/12/16 02:09:28;;;;;;;13.50;9.10;;;;;;;2.92;100.00;96126.16;4952894;28;20397;-71
2021/12/16 02:28:50;;;;;;;10.23;7.43;;;;;;;3.05;100.00;96122.75;4962328;28;20228;-71
2021/12/16 02:31:33;;;;;;;11.50;7.77;;;;;;;2.99;100.00;96116.16;4962340;28;20253;-72
2021/12/16 02:36:45;;;;;;;10.07;7.37;;;;;;;2.88;100.00;96126.13;4951391;29;21297;-70
2021/12/16 02:39:13;;;;;;;7.80;6.20;;;;;;;2.92;100.00;96128.84;4952413;28;20220;-71
2021/12/16 02:41:42;;;;;;;8.67;6.80;;;;;;;2.82;100.00;96127.63;4946158;28;20312;-70
2021/12/16 02:49:33;;;;;;;10.80;5.67;;;;;;;2.88;100.00;96119.94;4972799;28;20220;-71
2021/12/16 02:51:58;;;;;;;9.70;6.37;;;;;;;2.86;100.00;96111.47;4957660;28;20216;-71
2021/12/16 02:54:26;;;;;;;9.33;6.73;;;;;;;2.84;100.00;96128.03;4935218;29;20225;-71
2021/12/16 02:56:52;;;;;;;11.67;7.63;;;;;;;2.85;100.00;96116.06;4969288;28;20253;-71
2021/12/16 02:59:22;;;;;;;10.27;7.53;;;;;;;2.83;100.00;96117.63;4967002;28;20395;-71
2021/12/16 03:01:51;;;;;;;12.30;7.97;;;;;;;2.83;100.00;96114.91;4939559;29;20270;-71
2021/12/16 03:04:20;;;;;;;11.10;6.97;;;;;;;2.82;100.00;96124.94;4936617;28;20290;-72
2021/12/16 03:06:48;;;;;;;10.87;7.33;;;;;;;2.82;100.00;96132.25;4964202;28;20193;-70
2021/12/16 03:09:17;;;;;;;13.20;7.90;;;;;;;2.88;100.00;96111.84;4956321;28;20755;-71
2021/12/16 03:12:07;;;;;;;11.33;7.60;;;;;;;2.97;100.00;96120.41;4918301;29;20253;-71
2021/12/16 03:14:40;;;;;;;11.47;7.07;;;;;;;3.13;100.00;96127.00;4953596;28;20212;-71
2021/12/16 03:17:23;;;;;;;8.97;6.47;;;;;;;3.00;100.00;96130.41;4957453;28;20236;-71
2021/12/16 03:20:00;;;;;;;8.23;5.73;;;;;;;2.87;100.00;96121.88;4953543;28;20229;-72
2021/12/16 03:25:33;;;;;;;8.03;6.17;;;;;;;2.89;100.00;96140.38;4950790;28;20220;-72
2021/12/16 03:36:29;;;;;;;9.73;6.83;;;;;;;2.92;100.00;96145.78;4952050;28;20190;-72
2021/12/16 03:39:08;;;;;;;9.40;6.60;;;;;;;2.97;100.00;96148.13;4945066;28;20190;-72
2021/12/16 03:41:34;;;;;;;10.93;6.90;;;;;;;2.90;100.00;96153.47;4950679;28;20207;-72
2021/12/16 03:44:06;;;;;;;9.87;7.30;;;;;;;2.93;100.00;96149.28;4947674;28;20206;-72
2021/12/16 03:46:36;;;;;;;10.27;7.17;;;;;;;2.90;100.00;96150.78;4954330;28;20721;-72
2021/12/16 03:49:17;;;;;;;8.23;5.90;;;;;;;2.69;100.00;96157.97;4955015;28;20229;-72
2021/12/16 03:51:50;;;;;;;7.40;5.93;;;;;;;2.68;100.00;96156.44;4949449;28;20224;-72
2021/12/16 03:54:21;;;;;;;8.47;6.70;;;;;;;2.71;100.00;96158.38;4955457;29;20620;-72
2021/12/16 03:56:51;;;;;;;8.13;6.37;;;;;;;2.80;100.00;96161.53;4939165;28;20190;-72
2021/12/16 03:59:23;;;;;;;8.60;6.60;;;;;;;2.92;100.00;96161.97;4968045;28;20765;-72
2021/12/16 04:02:25;;;;;;;9.53;7.07;;;;;;;3.13;100.00;96162.09;4954640;28;20194;-72
2021/12/16 04:04:53;;;;;;;9.60;7.17;;;;;;;3.00;100.00;96152.78;4951400;28;20672;-72
2021/12/16 04:07:23;;;;;;;8.47;6.30;;;;;;;3.02;100.00;96161.25;4953544;29;20209;-73
2021/12/16 04:10:12;;;;;;;10.33;7.07;;;;;;;3.07;100.00;96166.31;4945105;29;20669;-72
2021/12/16 04:12:38;;;;;;;9.17;7.00;;;;;;;2.86;100.00;96178.91;4952909;28;20209;-72
2021/12/16 04:15:10;;;;;;;10.30;6.83;;;;;;;2.81;100.00;96179.25;4971574;28;20198;-72
2021/12/16 04:17:43;;;;;;;10.63;6.97;;;;;;;2.82;100.00;96188.91;4954334;29;20208;-71
2021/12/16 04:20:12;;;;;;;10.80;7.27;;;;;;;2.81;100.00;96165.78;4954816;28;20581;-72
2021/12/16 04:22:43;;;;;;;11.40;7.27;;;;;;;2.85;100.00;96177.38;4936975;29;20210;-72
2021/12/16 04:25:31;;;;;;;9.33;7.13;;;;;;;2.79;100.00;96178.84;4940602;28;20194;-72
2021/12/16 04:28:00;;;;;;;10.00;7.17;;;;;;;2.82;100.00;96178.88;4941297;28;20327;-71
2021/12/16 04:30:28;;;;;;;12.10;8.30;;;;;;;2.77;100.00;96181.94;4956275;28;20244;-72
2021/12/16 04:32:54;;;;;;;10.10;7.60;;;;;;;2.76;100.00;96183.09;4949689;29;20193;-72
2021/12/16 04:35:21;;;;;;;11.50;7.70;;;;;;;2.75;100.00;96188.88;4937551;29;20272;-71
2021/12/16 04:37:52;;;;;;;11.03;6.90;;;;;;;2.82;100.00;96183.53;4969267;28;20182;-72
2021/12/16 04:40:21;;;;;;;11.00;7.73;;;;;;;2.77;100.00;96181.94;4949046;28;20261;-72
2021/12/16 04:42:53;;;;;;;14.30;8.90;;;;;;;2.78;100.00;96196.19;4937076;29;20206;-72
2021/12/16 04:45:20;;;;;;;11.57;7.47;;;;;;;2.73;100.00;96194.63;4949099;28;20236;-72
2021/12/16 04:47:48;;;;;;;11.53;7.23;;;;;;;2.88;100.00;96188.19;4947841;29;20246;-72
2021/12/16 04:50:15;;;;;;;14.67;7.87;;;;;;;2.80;100.00;96207.41;4928775;29;20285;-72
2021/12/16 04:52:41;;;;;;;10.27;6.93;;;;;;;2.82;100.00;96199.72;4926101;29;20197;-72
2021/12/16 04:55:12;;;;;;;13.03;8.27;;;;;;;2.93;100.00;96205.94;4953294;29;20213;-72
2021/12/16 04:57:38;;;;;;;11.37;7.67;;;;;;;2.82;100.00;96213.94;4946237;28;20190;-72
2021/12/16 05:00:08;;;;;;;10.03;7.37;;;;;;;2.87;100.00;96207.44;4940123;28;20217;-72
2021/12/16 05:02:39;;;;;;;11.47;7.57;;;;;;;2.84;100.00;96203.56;4951887;28;20208;-72
2021/12/16 05:05:25;;;;;;;12.27;8.30;;;;;;;2.81;100.00;96215.13;4944877;28;20241;-72
2021/12/16 05:07:51;;;;;;;14.13;7.47;;;;;;;2.78;100.00;96215.88;4944570;29;20582;-72
2021/12/16 05:10:22;;;;;;;10.57;7.67;;;;;;;2.83;100.00;96214.72;4937414;29;20260;-72
2021/12/16 05:13:01;;;;;;;13.03;8.03;;;;;;;2.90;100.00;96212.84;4951225;28;20700;-72
2021/12/16 05:15:32;;;;;;;11.13;7.73;;;;;;;2.97;100.00;96212.13;4959692;28;20205;-71
2021/12/16 05:18:02;;;;;;;12.33;7.83;;;;;;;3.02;100.00;96225.28;4959503;28;20201;-72
2021/12/16 05:20:32;;;;;;;10.47;7.40;;;;;;;3.16;100.00;96218.03;4909176;28;1158839;-72
2021/12/16 05:28:28;;;;;;;9.27;6.77;;;;;;;2.92;100.00;96223.28;4953840;28;20217;-72
2021/12/16 05:30:56;;;;;;;12.67;7.67;;;;;;;2.87;100.00;96234.44;4965482;28;20695;-72
2021/12/16 05:33:24;;;;;;;11.87;7.63;;;;;;;2.99;100.00;96234.09;4955218;28;20687;-72
2021/12/16 05:35:53;;;;;;;11.53;9.47;;;;;;;3.09;100.00;96220.69;4951056;28;20237;-72
2021/12/16 05:38:19;;;;;;;10.73;8.87;;;;;;;2.91;100.00;96236.00;4921571;29;20198;-72
2021/12/16 05:40:46;;;;;;;13.90;9.43;;;;;;;2.93;100.00;96239.09;4958197;28;20217;-72
2021/12/16 05:43:24;;;;;;;11.80;9.20;;;;;;;2.80;100.00;96245.91;4940290;28;20562;-72
2021/12/16 05:45:54;;;;;;;11.93;9.50;;;;;;;2.79;100.00;96252.47;4948196;28;20736;-72
2021/12/16 05:48:24;;;;;;;12.40;9.50;;;;;;;2.73;100.00;96259.38;4975705;28;20290;-71
2021/12/16 05:50:55;;;;;;;11.13;9.30;;;;;;;2.60;100.00;96258.09;4946467;29;20228;-71
2021/12/16 05:53:21;;;;;;;13.23;9.87;;;;;;;2.71;100.00;96255.50;4949890;29;20225;-72
2021/12/16 05:55:50;;;;;;;15.97;10.50;;;;;;;2.75;100.00;96259.75;4945195;29;20202;-72
2021/12/16 05:58:28;;;;;;;13.50;9.70;;;;;;;2.77;100.00;96264.78;4966022;28;20201;-72
2021/12/16 06:00:59;;;;;;;13.10;9.77;;;;;;;2.78;100.00;96272.50;4964512;28;20313;-72
2021/12/16 06:03:28;;;;;;;16.60;12.30;;;;;;;2.70;100.00;96275.53;4956544;28;20202;-72
2021/12/16 06:05:54;;;;;;;15.90;12.13;;;;;;;2.76;100.00;96271.31;4953135;29;20213;-71
2021/12/16 06:08:21;;;;;;;13.80;10.80;;;;;;;2.93;100.00;96270.69;4951925;28;20217;-72
2021/12/16 06:13:39;;;;;;;13.03;9.97;;;;;;;2.74;100.00;96270.91;4948338;29;20194;-72
2021/12/16 06:27:01;;;;;;;13.53;10.83;;;;;;;2.75;100.00;96280.59;4952331;28;20283;-72
2021/12/16 06:29:27;;;;;;;17.77;13.10;;;;;;;2.71;100.00;96287.84;4950251;28;20718;-72
2021/12/16 06:31:54;;;;;;;15.63;12.87;;;;;;;2.61;100.00;96281.22;4945468;29;20193;-72
2021/12/16 06:34:20;;;;;;;14.87;12.00;;;;;;;2.65;100.00;96283.97;4950766;29;20206;-72
2021/12/16 06:36:46;;;;;;;17.67;12.63;;;;;;;2.57;100.00;96285.03;4953659;28;20186;-72
2021/12/16 06:39:12;;;;;;;15.57;12.03;;;;;;;2.60;100.00;96289.69;4952674;28;20267;-72
2021/12/16 06:41:43;;;;;;;17.73;13.07;;;;;;;2.59;100.00;96285.44;4968638;28;20197;-72
2021/12/16 06:44:19;;;;;;;16.87;12.83;;;;;;;2.53;100.00;96300.41;4934932;28;20225;-72
2021/12/16 06:46:46;;;;;;;16.23;12.23;;;;;;;2.51;100.00;96294.63;4935678;29;20344;-72
2021/12/16 06:49:15;;;;;;;16.97;12.53;;;;;;;2.59;100.00;96290.81;4953502;28;20264;-72
2021/12/16 06:51:50;;;;;;;17.90;13.30;;;;;;;2.66;100.00;96297.06;4947000;29;20201;-72
2021/12/16 06:54:30;;;;;;;14.93;11.77;;;;;;;2.70;100.00;96292.47;4953687;28;20201;-72
2021/12/16 06:59:51;;;;;;;13.40;10.70;;;;;;;2.63;100.00;96289.69;4943615;28;20284;-72
2021/12/16 07:02:36;;;;;;;15.77;12.43;;;;;;;2.72;100.00;96300.97;4953105;28;20204;-72
2021/12/16 07:05:04;;;;;;;25.20;17.77;;;;;;;2.68;100.00;96307.50;4947317;29;20201;-72
2021/12/16 07:07:30;;;;;;;18.07;13.50;;;;;;;2.85;100.00;96309.56;4952085;28;20256;-72
2021/12/16 07:09:56;;;;;;;20.87;15.07;;;;;;;2.93;100.00;96313.88;4952712;28;20305;-72
2021/12/16 07:12:34;;;;;;;27.10;20.47;;;;;;;2.88;100.00;96306.13;4949305;28;20606;-72
2021/12/16 07:15:00;;;;;;;16.73;12.50;;;;;;;2.88;100.00;96312.28;4934433;29;20392;-72
2021/12/16 07:17:26;;;;;;;13.57;10.23;;;;;;;2.82;100.00;96311.06;4939410;29;20189;-72
2021/12/16 07:19:52;;;;;;;9.93;7.67;;;;;;;2.83;100.00;96320.72;4951692;28;20217;-72
2021/12/16 07:22:18;;;;;;;8.90;7.70;;;;;;;2.71;100.00;96315.63;4940071;29;20584;-72
2021/12/16 07:24:44;;;;;;;10.97;8.07;;;;;;;2.76;100.00;96309.88;4935030;29;20253;-72
2021/12/16 07:27:10;;;;;;;9.90;7.80;;;;;;;2.71;100.00;96317.53;4949208;28;20308;-72
2021/12/16 07:29:37;;;;;;;10.13;7.87;;;;;;;2.63;100.00;96319.38;4947403;28;20256;-71
2021/12/16 07:32:03;;;;;;;11.13;8.30;;;;;;;2.61;100.00;96327.09;4951847;28;20224;-72
2021/12/16 07:34:30;;;;;;;9.87;7.43;;;;;;;2.56;100.00;96327.41;4950453;28;20197;-72
2021/12/16 07:36:55;;;;;;;10.33;7.60;;;;;;;2.56;100.00;96338.19;4952362;28;20205;-72
2021/12/16 07:39:28;;;;;;;11.03;8.83;;;;;;;2.59;100.00;96326.66;4946988;28;20213;-72
2021/12/16 07:41:56;;;;;;;11.23;8.57;;;;;;;2.57;100.00;96333.56;4951012;29;20197;-72
2021/12/16 07:44:23;;;;;;;10.63;7.60;;;;;;;2.41;100.00;96341.88;4949465;28;20323;-72
2021/12/16 07:46:56;;;;;;;12.33;8.90;;;;;;;2.43;100.00;96339.59;4957484;28;20190;-73
2021/12/16 07:49:32;;;;;;;9.63;7.60;;;;;;;2.49;100.00;96349.66;4928271;29;20225;-72
2021/12/16 07:52:00;;;;;;;12.23;7.60;;;;;;;2.47;100.00;96354.69;4950297;28;20721;-72
2021/12/16 07:54:27;;;;;;;12.33;8.67;;;;;;;2.52;100.00;96344.69;4934746;28;20198;-72
2021/12/16 07:56:55;;;;;;;10.13;7.17;;;;;;;2.41;100.00;96342.66;4952374;28;20193;-72
2021/12/16 07:59:22;;;;;;;12.20;8.23;;;;;;;2.41;100.00;96339.19;4950436;28;20216;-72
2021/12/16 08:01:48;;;;;;;11.27;8.20;;;;;;;2.49;100.00;96340.81;4933720;28;20198;-72
2021/12/16 08:04:20;;;;;;;11.53;8.13;;;;;;;2.60;100.00;96340.94;4950813;29;20289;-72
2021/12/16 08:06:51;;;;;;;12.47;8.50;;;;;;;2.53;100.00;96341.63;4952567;28;20249;-72
2021/12/16 08:09:17;;;;;;;10.80;7.50;;;;;;;2.54;100.00;96343.19;4930498;29;20246;-72
2021/12/16 08:11:44;;;;;;;10.70;7.40;;;;;;;2.57;100.00;96352.44;4935438;29;20367;-72
2021/12/16 08:14:10;;;;;;;12.50;7.20;;;;;;;2.67;100.00;96360.66;4941028;28;20253;-72
2021/12/16 08:16:38;;;;;;;11.53;7.63;;;;;;;2.61;100.00;96355.97;4950200;28;20198;-72
2021/12/16 08:19:05;;;;;;;9.63;6.73;;;;;;;2.58;100.00;96351.31;4951970;28;20197;-72
2021/12/16 08:21:31;;;;;;;9.70;6.80;;;;;;;2.71;100.00;96358.00;4936350;28;20214;-72
2021/12/16 08:24:00;;;;;;;10.60;7.43;;;;;;;2.59;100.00;96363.66;4952885;28;20225;-72
2021/12/16 08:26:27;;;;;;;9.03;6.63;;;;;;;2.54;100.00;96369.38;4952683;28;20194;-72
2021/12/16 08:28:53;;;;;;;8.77;6.03;;;;;;;2.34;100.00;96369.53;4950670;28;20212;-72
2021/12/16 08:31:19;;;;;;;7.70;6.00;;;;;;;2.42;100.00;96351.53;4951076;28;20431;-72
2021/12/16 08:33:46;;;;;;;7.43;6.13;;;;;;;2.33;100.00;96370.69;4938677;29;20255;-72
2021/12/16 08:36:12;;;;;;;7.40;5.93;;;;;;;2.37;100.00;96368.81;4954520;29;20190;-72
2021/12/16 08:38:38;;;;;;;12.03;6.60;;;;;;;2.28;100.00;96364.84;4936451;29;20241;-72
2021/12/16 08:41:13;;;;;;;10.97;7.27;;;;;;;2.40;100.00;96368.09;4954259;28;20305;-72
2021/12/16 08:43:41;;;;;;;9.83;7.07;;;;;;;2.56;100.00;96373.25;4940679;28;20202;-72
2021/12/16 08:46:09;;;;;;;8.90;6.43;;;;;;;2.47;100.00;96376.25;4935159;29;20702;-72
2021/12/16 08:48:35;;;;;;;7.60;6.10;;;;;;;2.57;100.00;96369.41;4937340;29;20222;-72
2021/12/16 08:51:02;;;;;;;8.90;6.47;;;;;;;2.66;100.00;96378.00;4935548;29;20220;-72
2021/12/16 08:53:28;;;;;;;7.83;5.97;;;;;;;2.63;100.00;96386.78;4954153;28;20201;-72
2021/12/16 08:55:55;;;;;;;7.77;5.87;;;;;;;2.69;100.00;96379.16;4951600;28;20190;-72
2021/12/16 08:58:23;;;;;;;9.43;6.30;;;;;;;2.69;100.00;96381.84;4954545;28;20208;-72
2021/12/16 09:00:54;;;;;;;9.47;7.67;;;;;;;2.82;100.00;96391.25;4949665;29;20214;-72
2021/12/16 09:03:20;;;;;;;9.70;5.97;;;;;;;2.84;100.00;96386.25;4955476;28;20224;-72
2021/12/16 09:05:45;;;;;;;6.93;5.27;;;;;;;2.75;100.00;96375.75;4955187;28;20229;-72
2021/12/16 09:08:11;;;;;;;6.47;5.50;;;;;;;2.76;100.00;96368.44;4951178;29;20241;-72
2021/12/16 09:10:38;;;;;;;6.00;5.23;;;;;;;2.81;100.00;96376.19;4966970;28;20225;-72
2021/12/16 09:13:09;;;;;;;7.07;5.57;;;;;;;2.88;100.00;96385.16;4946088;29;20314;-72
2021/12/16 09:15:58;;;;;;;8.60;6.53;;;;;;;2.88;100.00;96392.47;4953650;29;20226;-72
2021/12/16 09:18:28;;;;;;;6.60;5.77;;;;;;;2.87;100.00;96385.53;4955335;28;20201;-72
2021/12/16 09:20:57;;;;;;;7.07;4.93;;;;;;;3.01;100.00;96404.53;4958142;28;20256;-73
2021/12/16 09:23:30;;;;;;;6.93;5.20;;;;;;;2.72;100.00;96400.78;4950990;28;20378;-72
2021/12/16 09:25:56;;;;;;;6.53;5.07;;;;;;;2.90;100.00;96398.25;4953170;28;20220;-72
2021/12/16 09:28:23;;;;;;;5.23;4.73;;;;;;;3.01;100.00;96413.41;4961366;28;20674;-72
2021/12/16 09:30:49;;;;;;;5.57;4.67;;;;;;;3.20;100.00;96404.31;4954620;28;20306;-72
2021/12/16 09:33:19;;;;;;;6.37;5.37;;;;;;;3.36;100.00;96402.16;4954173;28;20185;-71
2021/12/16 09:35:48;;;;;;;5.67;5.13;;;;;;;3.42;100.00;96409.53;4963155;28;20206;-72
2021/12/16 09:38:15;;;;;;;6.37;4.43;;;;;;;3.32;100.00;96407.53;4948183;29;20194;-72
2021/12/16 09:40:49;;;;;;;4.23;3.70;;;;;;;3.53;100.00;96418.47;4953794;28;20212;-72
2021/12/16 09:43:20;;;;;;;6.17;4.37;;;;;;;3.79;100.00;96403.19;4938865;29;20202;-72
2021/12/16 09:45:46;;;;;;;6.00;3.97;;;;;;;3.84;100.00;96397.44;4954671;29;20194;-72
2021/12/16 09:48:12;;;;;;;4.87;3.93;;;;;;;3.66;100.00;96408.16;4954062;29;20221;-72
2021/12/16 09:50:38;;;;;;;5.20;3.33;;;;;;;3.66;100.00;96405.44;4955197;28;20224;-72
2021/12/16 09:53:04;;;;;;;3.90;3.50;;;;;;;3.88;100.00;96409.06;4960794;28;20201;-72
2021/12/16 09:55:33;;;;;;;6.17;3.23;;;;;;;3.88;100.00;96403.66;4968883;28;20202;-72
2021/12/16 09:57:59;;;;;;;3.40;3.10;;;;;;;3.79;100.00;96392.41;4950046;29;20194;-72
2021/12/16 10:00:28;;;;;;;3.63;3.20;;;;;;;3.75;100.00;96394.31;4953124;28;20209;-72
2021/12/16 10:02:56;;;;;;;5.03;2.67;;;;;;;3.73;100.00;96400.09;4951487;28;20609;-72
2021/12/16 10:05:24;;;;;;;3.03;2.50;;;;;;;4.04;100.00;96409.56;4953635;29;20201;-72
2021/12/16 10:07:49;;;;;;;4.23;2.53;;;;;;;4.19;100.00;96403.06;4941132;29;20221;-72
2021/12/16 10:10:20;;;;;;;3.00;2.60;;;;;;;4.20;100.00;96399.19;4951311;28;20213;-72
2021/12/16 10:12:49;;;;;;;5.60;3.10;;;;;;;4.21;100.00;96401.50;4944936;29;20222;-72
2021/12/16 10:18:00;;;;;;;2.80;2.60;;;;;;;4.21;100.00;96398.81;4948863;28;20194;-72
2021/12/16 10:20:33;;;;;;;2.97;2.33;;;;;;;4.10;100.00;96402.63;4959897;28;20220;-72
2021/12/16 10:23:24;;;;;;;3.00;2.70;;;;;;;4.00;100.00;96406.03;4950597;28;20202;-72
2021/12/16 10:26:01;;;;;;;2.53;2.33;;;;;;;4.12;100.00;96400.31;4950219;28;20220;-72
2021/12/16 10:28:37;;;;;;;2.27;2.07;;;;;;;4.14;100.00;96400.72;4950610;29;20232;-72
2021/12/16 10:31:07;;;;;;;2.50;2.07;;;;;;;4.22;100.00;96407.69;4944861;28;20320;-72
2021/12/16 10:33:35;;;;;;;3.40;2.50;;;;;;;4.30;100.00;96399.25;4944628;29;20193;-72
2021/12/16 10:36:05;;;;;;;2.93;2.33;;;;;;;4.45;100.00;96403.56;4952545;28;20204;-72
2021/12/16 10:38:44;;;;;;;2.60;2.40;;;;;;;4.33;100.00;96397.69;4940746;29;20233;-72
2021/12/16 10:41:16;;;;;;;2.33;2.13;;;;;;;4.25;100.00;96394.19;4947355;28;22319;-72
2021/12/16 10:43:47;;;;;;;2.37;2.17;;;;;;;4.42;100.00;96381.91;4950826;29;20866;-72
2021/12/16 10:46:17;;;;;;;2.30;2.10;;;;;;;4.52;100.00;96387.34;4940014;29;20253;-72
2021/12/16 10:48:49;;;;;;;3.10;1.87;;;;;;;4.56;100.00;96368.44;4952184;29;20229;-71
2021/12/16 10:51:52;;;;;;;2.00;1.80;;;;;;;4.62;100.00;96356.84;4956715;28;20212;-71
2021/12/16 10:54:22;;;;;;;2.27;2.00;;;;;;;4.62;100.00;96369.59;4939966;28;20197;-72
2021/12/16 10:57:01;;;;;;;2.40;2.20;;;;;;;4.59;100.00;96378.47;4946716;29;20208;-72
2021/12/16 10:59:33;;;;;;;2.23;2.03;;;;;;;4.67;100.00;96371.91;4946365;29;20725;-72
2021/12/16 11:02:09;;;;;;;2.83;2.40;;;;;;;4.74;100.00;96370.03;4947983;29;20277;-71
2021/12/16 11:04:53;;;;;;;2.50;2.20;;;;;;;4.91;100.00;96368.50;4949005;28;20215;-72
2021/12/16 11:07:21;;;;;;;2.87;2.40;;;;;;;5.10;100.00;96370.84;4952682;28;20201;-72
2021/12/16 11:10:02;;;;;;;2.37;2.17;;;;;;;5.37;100.00;96357.69;4951565;28;20229;-72
2021/12/16 11:12:49;;;;;;;2.57;2.37;;;;;;;5.52;100.00;96360.00;4943139;29;20198;-72
2021/12/16 11:15:20;;;;;;;2.07;1.83;;;;;;;5.77;100.00;96370.81;4943998;29;20198;-72
2021/12/16 11:18:24;;;;;;;1.87;1.70;;;;;;;5.52;100.00;96372.78;4951153;29;20185;-72
2021/12/16 11:20:59;;;;;;;2.40;2.13;;;;;;;5.41;100.00;96367.38;4947376;28;20240;-72
2021/12/16 11:23:30;;;;;;;4.27;2.00;;;;;;;5.25;100.00;96374.31;4960473;28;20200;-72
2021/12/16 11:26:03;;;;;;;2.97;2.20;;;;;;;5.29;100.00;96370.47;4950034;29;20560;-72
2021/12/16 11:28:31;;;;;;;3.40;2.27;;;;;;;5.07;100.00;96374.34;4951536;28;20261;-72
2021/12/16 11:31:08;;;;;;;2.53;2.07;;;;;;;5.13;100.00;96372.78;4949852;28;20296;-72
2021/12/16 11:33:39;;;;;;;3.03;2.20;;;;;;;5.27;100.00;96356.53;4950439;28;20233;-72
2021/12/16 11:36:08;;;;;;;2.03;1.93;;;;;;;5.16;100.00;96365.81;4942625;29;20212;-72
2021/12/16 11:38:42;;;;;;;2.77;2.13;;;;;;;5.09;100.00;96371.22;4955509;28;20230;-72
2021/12/16 11:41:25;;;;;;;2.93;2.03;;;;;;;5.28;100.00;96368.91;4952094;28;20259;-72
2021/12/16 11:43:54;;;;;;;2.53;2.10;;;;;;;5.85;100.00;96370.44;4950175;29;20260;-72
2021/12/16 11:46:28;;;;;;;2.00;1.80;;;;;;;6.10;100.00;96370.38;4950928;29;20202;-72
2021/12/16 11:48:56;;;;;;;4.90;3.10;;;;;;;7.19;100.00;96365.16;4962819;28;20209;-73
2021/12/16 11:51:24;;;;;;;2.87;2.17;;;;;;;7.42;100.00;96363.81;4947071;28;20198;-72
2021/12/16 11:53:57;;;;;;;2.10;1.80;;;;;;;7.85;100.00;96360.31;4941415;28;20214;-73
2021/12/16 11:56:44;;;;;;;2.00;1.80;;;;;;;7.41;97.39;96371.22;4952588;28;20205;-72
2021/12/16 11:59:11;;;;;;;3.50;1.70;;;;;;;7.00;99.11;96383.91;4946923;28;20213;-71
2021/12/16 12:01:40;;;;;;;1.67;1.57;;;;;;;6.92;99.39;96372.31;4962700;28;20577;-71
2021/12/16 12:04:09;;;;;;;1.60;1.50;;;;;;;6.15;100.00;96364.53;4959388;28;20269;-72
2021/12/16 12:06:37;;;;;;;4.27;1.40;;;;;;;5.84;100.00;96368.88;4951557;28;20192;-71
2021/12/16 12:09:05;;;;;;;1.50;1.40;;;;;;;5.65;100.00;96365.81;4951579;28;20222;-71
2021/12/16 12:11:34;;;;;;;2.13;1.83;;;;;;;5.64;100.00;96367.72;4956182;28;20201;-71
2021/12/16 12:14:04;;;;;;;2.27;2.07;;;;;;;5.55;100.00;96361.19;4957578;28;20252;-71
2021/12/16 12:16:35;;;;;;;2.00;1.83;;;;;;;5.44;100.00;96366.59;4962836;28;20194;-71
2021/12/16 12:19:20;;;;;;;1.83;1.70;;;;;;;5.43;100.00;96367.75;4956451;28;20209;-71
2021/12/16 12:21:54;;;;;;;2.07;1.80;;;;;;;5.31;100.00;96365.41;4952749;28;20280;-71
2021/12/16 12:24:31;;;;;;;2.10;1.90;;;;;;;5.28;100.00;96377.03;4954536;28;20276;-71
2021/12/16 12:27:04;;;;;;;2.50;2.30;;;;;;;5.31;100.00;96364.66;4954676;28;20201;-72
2021/12/16 12:29:35;;;;;;;2.50;2.20;;;;;;;5.44;100.00;96363.09;4963496;28;20236;-72
2021/12/16 12:32:29;;;;;;;2.17;1.97;;;;;;;5.47;100.00;96370.44;4955303;28;20197;-72
2021/12/16 12:35:02;;;;;;;2.30;2.10;;;;;;;5.50;100.00;96366.97;4949389;28;20291;-72
2021/12/16 12:37:31;;;;;;;2.63;2.20;;;;;;;5.44;100.00;96379.38;4952722;28;20198;-72
2021/12/16 12:40:32;;;;;;;2.20;2.10;;;;;;;5.27;100.00;96372.00;4950073;28;20217;-71
2021/12/16 12:42:58;;;;;;;1.83;1.73;;;;;;;5.33;100.00;96373.94;4942566;28;20238;-72
2021/12/16 12:45:28;;;;;;;2.07;1.87;;;;;;;5.41;100.00;96375.50;4954886;28;20262;-72
2021/12/16 12:47:57;;;;;;;1.90;1.70;;;;;;;5.21;100.00;96370.84;4957626;28;20218;-72
2021/12/16 12:50:30;;;;;;;1.97;1.77;;;;;;;5.06;100.00;96375.47;4944173;29;20213;-72
2021/12/16 12:52:59;;;;;;;2.60;2.03;;;;;;;5.07;100.00;96379.75;4958758;28;20208;-72
2021/12/16 12:55:31;;;;;;;2.00;1.80;;;;;;;5.02;100.00;96371.22;4954484;28;20250;-72
2021/12/16 12:58:19;;;;;;;2.50;2.30;;;;;;;5.10;100.00;96376.25;4956266;28;20204;-72
2021/12/16 13:00:48;;;;;;;2.53;2.10;;;;;;;5.08;100.00;96369.66;4951398;28;20293;-71
2021/12/16 13:03:21;;;;;;;2.77;2.17;;;;;;;5.05;100.00;96356.91;4951069;28;20201;-71
2021/12/16 13:06:14;;;;;;;5.93;2.03;;;;;;;5.15;100.00;96354.22;4953363;28;20197;-71
2021/12/16 13:08:47;;;;;;;3.43;2.37;;;;;;;5.14;100.00;96354.59;4957135;28;20237;-72
2021/12/16 13:11:27;;;;;;;1.83;1.73;;;;;;;5.31;100.00;96361.97;4949355;29;20253;-71
2021/12/16 13:14:01;;;;;;;2.13;1.80;;;;;;;5.21;100.00;96351.91;4937574;28;20225;-71
2021/12/16 13:25:56;;;;;;;2.30;2.10;;;;;;;5.16;100.00;96361.16;4956971;28;20385;-71
2021/12/16 13:27:47;;;;;;;2.20;2.00;;;;;;;5.18;100.00;96356.16;4952419;28;20265;-71
2021/12/16 13:30:26;;;;;;;2.20;2.00;;;;;;;4.96;100.00;96360.00;4962084;28;20218;-71
2021/12/16 13:33:23;;;;;;;5.60;2.10;;;;;;;4.91;100.00;96354.97;4947234;29;20198;-71
2021/12/16 13:36:01;;;;;;;2.10;1.90;;;;;;;4.90;100.00;96354.19;4947848;28;20206;-71
2021/12/16 13:38:38;;;;;;;2.60;2.20;;;;;;;5.07;100.00;96351.88;4944715;29;20193;-71
2021/12/16 13:41:17;;;;;;;2.30;2.10;;;;;;;4.97;100.00;96341.81;4948813;29;20232;-71
2021/12/16 13:44:01;;;;;;;2.17;1.97;;;;;;;5.04;100.00;96333.72;4949084;29;20288;-71
2021/12/16 13:46:42;;;;;;;5.20;1.90;;;;;;;5.10;100.00;96343.78;4928916;29;20567;-72
2021/12/16 14:03:52;;;;;;;5.57;1.93;;;;;;;4.91;100.00;96355.75;4952231;28;20229;-72
2021/12/16 14:07:23;;;;;;;2.30;2.10;;;;;;;4.72;100.00;96347.19;4935561;29;20189;-72
2021/12/16 14:10:05;;;;;;;3.07;1.80;;;;;;;4.78;100.00;96345.66;4952173;29;20237;-72
2021/12/16 14:23:23;;;;;;;2.17;1.80;;;;;;;4.82;100.00;96349.91;4951755;28;20229;-72
2021/12/16 14:34:50;;;;;;;2.00;1.63;;;;;;;4.95;100.00;96356.50;4962893;28;20214;-72
2021/12/16 14:50:08;;;;;;;2.90;1.73;;;;;;;4.47;100.00;96357.19;4951367;29;20221;-72
2021/12/16 14:52:36;;;;;;;2.83;1.73;;;;;;;4.39;100.00;96369.16;4963179;28;20266;-72
2021/12/16 14:55:09;;;;;;;2.30;2.07;;;;;;;4.31;100.00;96381.84;4952129;29;20224;-72
2021/12/16 14:57:41;;;;;;;1.60;1.50;;;;;;;4.26;100.00;96389.56;4953048;28;20723;-72
2021/12/16 15:00:08;;;;;;;2.60;1.90;;;;;;;4.20;100.00;96396.50;4931964;29;20305;-72
2021/12/16 15:02:37;;;;;;;5.77;2.10;;;;;;;4.16;100.00;96395.69;4965527;28;20194;-72
2021/12/16 15:05:03;;;;;;;3.57;1.80;;;;;;;4.28;100.00;96404.25;4952441;29;20198;-72
2021/12/16 15:07:30;;;;;;;1.80;1.67;;;;;;;4.32;100.00;96402.34;4950264;29;20201;-72
2021/12/16 15:09:56;;;;;;;2.40;2.20;;;;;;;4.36;100.00;96410.47;4943504;28;20217;-72
2021/12/16 15:12:35;;;;;;;2.17;1.97;;;;;;;4.33;100.00;96414.72;4947946;29;20191;-72